Time;durP1;ratioP1;P1;durP2;ratioP2;P2;SDS_P1;SDS_P2;PMS_P1;PMS_P2;Temp;Humidity;BMP_temperature;BMP_pressure;BME280_temperature;BME280_humidity;BME280_pressure;Samples;Min_cycle;Max_cycle;Signal;HPM_P1;HPM_P2
2022/08/01 00:01:28;;;;;;;;;;;;;;;24.33;53.31;100770.75;4992253;28;4207;-67
2022/08/01 00:03:55;;;;;;;;;;;;;;;24.33;53.54;100770.75;4987552;28;4235;-67
2022/08/01 00:06:21;;;;;;;;;;;;;;;24.33;53.33;100770.75;4989352;28;5232;-68
2022/08/01 00:08:48;;;;;;;;;;;;;;;24.32;53.64;100772.91;4994976;28;4182;-68
2022/08/01 00:11:14;;;;;;;;;;;;;;;24.31;53.71;100770.69;4986561;28;4307;-69
2022/08/01 00:13:41;;;;;;;;;;;;;;;24.29;53.99;100780.03;4993539;28;4234;-68
2022/08/01 00:16:07;;;;;;;;;;;;;;;24.28;54.17;100783.63;4991622;28;4197;-69
2022/08/01 00:18:35;;;;;;;;;;;;;;;24.28;54.38;100777.81;4992987;28;5431;-69
2022/08/01 00:21:02;;;;;;;;;;;;;;;24.27;54.52;100776.38;4998274;28;4279;-68
2022/08/01 00:23:28;;;;;;;;;;;;;;;24.28;54.52;100772.03;4998453;28;4218;-69
2022/08/01 00:25:55;;;;;;;;;;;;;;;24.27;54.89;100770.56;4998676;28;4082;-68
2022/08/01 00:28:21;;;;;;;;;;;;;;;24.29;54.49;100773.53;4997843;28;5381;-68
2022/08/01 00:30:48;;;;;;;;;;;;;;;24.29;54.55;100779.31;5000419;28;5312;-67
2022/08/01 00:33:14;;;;;;;;;;;;;;;24.28;54.92;100777.81;4994979;28;4052;-68
2022/08/01 00:35:40;;;;;;;;;;;;;;;24.28;55.06;100772.81;4996742;28;4080;-68
2022/08/01 00:38:07;;;;;;;;;;;;;;;24.27;55.37;100765.53;4998147;28;5275;-68
2022/08/01 00:40:33;;;;;;;;;;;;;;;24.28;55.15;100777.81;4997128;28;4234;-68
2022/08/01 00:42:59;;;;;;;;;;;;;;;24.27;55.69;100773.47;4997511;28;4429;-68
2022/08/01 00:45:26;;;;;;;;;;;;;;;24.27;55.49;100773.47;4997364;28;4193;-68
2022/08/01 00:47:52;;;;;;;;;;;;;;;24.25;55.52;100774.88;4995780;28;4181;-68
2022/08/01 00:50:20;;;;;;;;;;;;;;;24.27;56.01;100767.69;4996626;28;4189;-68
2022/08/01 00:52:47;;;;;;;;;;;;;;;24.26;56.19;100775.63;5000519;28;4226;-68
2022/08/01 00:55:16;;;;;;;;;;;;;;;24.25;56.44;100777.75;4988226;28;5392;-68
2022/08/01 00:57:43;;;;;;;;;;;;;;;24.25;55.99;100774.13;4996893;28;4260;-68
2022/08/01 01:00:29;;;;;;;;;;;;;;;24.24;56.56;100772.69;4992061;28;5488;-68
2022/08/01 01:02:59;;;;;;;;;;;;;;;24.25;56.67;100765.47;4994190;28;4323;-68
2022/08/01 01:05:25;;;;;;;;;;;;;;;24.24;56.64;100767.63;4996819;28;4222;-68
2022/08/01 01:08:02;;;;;;;;;;;;;;;24.25;56.35;100771.97;4995823;28;4061;-68
2022/08/01 01:10:30;;;;;;;;;;;;;;;24.27;56.37;100767.69;4995426;28;4161;-68
2022/08/01 01:13:05;;;;;;;;;;;;;;;24.27;56.58;100768.41;4995809;28;4066;-68
2022/08/01 01:15:47;;;;;;;;;;;;;;;24.26;56.56;100764.06;4998451;28;4311;-68
2022/08/01 01:18:23;;;;;;;;;;;;;;;24.26;56.67;100761.16;4981580;28;4333;-68
2022/08/01 01:20:51;;;;;;;;;;;;;;;24.28;56.74;100760.47;4988701;28;4279;-68
2022/08/01 01:23:24;;;;;;;;;;;;;;;24.27;56.58;100759.72;4993070;28;4165;-68
2022/08/01 01:25:53;;;;;;;;;;;;;;;24.26;56.58;100752.47;4996550;28;4285;-68
2022/08/01 01:28:41;;;;;;;;;;;;;;;24.25;57.12;100757.50;4990415;28;4230;-68
2022/08/01 01:31:08;;;;;;;;;;;;;;;24.24;56.70;100747.38;4991011;28;4173;-68
2022/08/01 01:33:36;;;;;;;;;;;;;;;24.23;56.99;100756.72;4997079;28;5291;-68
2022/08/01 01:36:12;;;;;;;;;;;;;;;24.22;57.15;100747.31;4997717;28;4516;-68
2022/08/01 01:38:43;;;;;;;;;;;;;;;24.23;57.48;100748.78;4993508;28;4186;-67
2022/08/01 01:41:10;;;;;;;;;;;;;;;24.22;57.87;100749.47;4996421;28;4191;-68
2022/08/01 01:43:36;;;;;;;;;;;;;;;24.22;58.06;100747.31;4992726;28;4254;-68
2022/08/01 01:46:03;;;;;;;;;;;;;;;24.21;58.03;100745.09;4993246;28;4415;-69
2022/08/01 01:48:29;;;;;;;;;;;;;;;24.21;58.05;100750.88;4989866;28;5225;-68
2022/08/01 01:50:56;;;;;;;;;;;;;;;24.20;57.73;100747.25;5002192;28;5466;-68
2022/08/01 01:53:22;;;;;;;;;;;;;;;24.20;57.78;100747.25;4995687;28;4209;-68
2022/08/01 01:55:52;;;;;;;;;;;;;;;24.20;57.74;100743.63;5000808;28;5334;-68
2022/08/01 01:58:19;;;;;;;;;;;;;;;24.20;57.78;100744.34;4993858;28;4173;-68
2022/08/01 02:00:45;;;;;;;;;;;;;;;24.20;57.79;100735.66;4996351;28;5609;-67
2022/08/01 02:03:12;;;;;;;;;;;;;;;24.20;57.89;100738.56;4993743;28;5156;-68
2022/08/01 02:05:38;;;;;;;;;;;;;;;24.21;57.90;100742.94;4993824;28;4274;-68
2022/08/01 02:08:05;;;;;;;;;;;;;;;24.21;57.79;100740.06;4991708;28;5498;-68
2022/08/01 02:10:32;;;;;;;;;;;;;;;24.21;57.70;100748.75;4994751;28;4537;-68
2022/08/01 02:12:59;;;;;;;;;;;;;;;24.22;57.63;100752.34;4996267;28;5263;-68
2022/08/01 02:15:26;;;;;;;;;;;;;;;24.21;58.12;100745.84;4985887;28;4256;-68
2022/08/01 02:17:52;;;;;;;;;;;;;;;24.21;57.86;100745.84;4997970;28;4223;-68
2022/08/01 02:20:18;;;;;;;;;;;;;;;24.21;58.19;100740.06;4990399;28;5276;-68
2022/08/01 02:23:06;;;;;;;;;;;;;;;24.21;58.06;100737.16;4992972;28;4401;-68
2022/08/01 02:25:34;;;;;;;;;;;;;;;24.20;58.33;100741.47;4996389;28;4166;-68
2022/08/01 02:28:06;;;;;;;;;;;;;;;24.22;58.23;100729.94;4997399;28;4247;-68
2022/08/01 02:30:35;;;;;;;;;;;;;;;24.22;57.85;100732.84;4993246;28;4536;-68
2022/08/01 02:33:05;;;;;;;;;;;;;;;24.24;57.97;100732.91;4994820;28;4041;-69
2022/08/01 02:35:36;;;;;;;;;;;;;;;24.20;58.28;100735.66;4995769;28;5428;-68
2022/08/01 02:38:24;;;;;;;;;;;;;;;24.20;58.47;100732.78;4995337;28;4020;-69
2022/08/01 02:40:50;;;;;;;;;;;;;;;24.19;58.26;100731.31;4992097;28;4166;-68
2022/08/01 02:43:17;;;;;;;;;;;;;;;24.20;58.38;100738.56;4994396;28;4265;-68
2022/08/01 02:45:45;;;;;;;;;;;;;;;24.20;58.57;100737.84;4992740;28;4362;-68
2022/08/01 02:48:12;;;;;;;;;;;;;;;24.19;58.75;100737.09;4995683;28;5246;-69
2022/08/01 02:50:39;;;;;;;;;;;;;;;24.19;58.75;100731.31;4992189;28;4231;-69
2022/08/01 02:53:06;;;;;;;;;;;;;;;24.18;58.37;100729.81;4985652;28;4558;-68
2022/08/01 02:55:32;;;;;;;;;;;;;;;24.18;58.75;100729.81;4991714;28;4173;-68
2022/08/01 02:57:59;;;;;;;;;;;;;;;24.19;58.75;100730.56;4989069;28;4208;-68
2022/08/01 03:00:26;;;;;;;;;;;;;;;24.18;58.64;100735.59;4996281;28;4283;-68
2022/08/01 03:02:54;;;;;;;;;;;;;;;24.18;58.66;100729.09;4988311;28;5340;-68
2022/08/01 03:05:21;;;;;;;;;;;;;;;24.18;58.69;100735.59;4984326;28;4166;-67
2022/08/01 03:07:47;;;;;;;;;;;;;;;24.18;59.06;100729.81;4985953;28;5514;-68
2022/08/01 03:10:14;;;;;;;;;;;;;;;24.18;59.04;100732.72;4993756;28;5556;-68
2022/08/01 03:12:40;;;;;;;;;;;;;;;24.18;59.15;100734.88;4988935;28;4259;-68
2022/08/01 03:15:07;;;;;;;;;;;;;;;24.17;58.99;100727.63;4989525;28;5308;-68
2022/08/01 03:17:35;;;;;;;;;;;;;;;24.17;59.23;100742.09;4999218;28;5320;-68
2022/08/01 03:20:02;;;;;;;;;;;;;;;24.23;59.09;100743.00;4990567;28;5289;-67
2022/08/01 03:22:28;;;;;;;;;;;;;;;24.16;59.12;100744.22;4987061;28;5446;-68
2022/08/01 03:24:55;;;;;;;;;;;;;;;24.15;59.17;100754.34;4991088;28;5268;-69
2022/08/01 03:27:22;;;;;;;;;;;;;;;24.16;59.34;100749.28;4986448;28;5256;-68
2022/08/01 03:29:48;;;;;;;;;;;;;;;24.16;59.28;100750.00;4984107;28;4265;-68
2022/08/01 03:32:15;;;;;;;;;;;;;;;24.17;59.54;100763.09;4989185;28;4256;-68
2022/08/01 03:34:42;;;;;;;;;;;;;;;24.16;59.37;100755.81;4997003;28;4093;-68
2022/08/01 03:37:13;;;;;;;;;;;;;;;24.15;59.46;100757.22;4994166;28;4323;-68
2022/08/01 03:39:58;;;;;;;;;;;;;;;24.15;59.35;100751.44;4998171;28;5306;-68
2022/08/01 03:42:28;;;;;;;;;;;;;;;24.16;59.47;100744.22;4997792;28;4219;-68
2022/08/01 03:44:57;;;;;;;;;;;;;;;24.16;59.33;100750.00;4993092;28;4250;-68
2022/08/01 03:47:25;;;;;;;;;;;;;;;24.21;59.67;100757.41;4989731;28;4132;-68
2022/08/01 03:49:52;;;;;;;;;;;;;;;24.16;59.51;100755.06;4990108;28;4218;-68
2022/08/01 03:52:18;;;;;;;;;;;;;;;24.16;59.62;100757.97;4992851;28;4243;-68
2022/08/01 03:54:46;;;;;;;;;;;;;;;24.16;59.84;100758.69;4999486;28;4235;-67
2022/08/01 03:57:12;;;;;;;;;;;;;;;24.15;59.59;100756.50;4999991;28;4252;-68
2022/08/01 03:59:59;;;;;;;;;;;;;;;24.15;59.74;100763.00;4989449;28;6447;-68
2022/08/01 04:02:26;;;;;;;;;;;;;;;24.15;59.61;100760.13;4996653;28;4442;-68
2022/08/01 04:04:52;;;;;;;;;;;;;;;24.16;59.63;100767.38;4991631;28;5387;-68
2022/08/01 04:07:38;;;;;;;;;;;;;;;24.16;59.96;100758.69;4993148;28;4246;-67
2022/08/01 04:10:05;;;;;;;;;;;;;;;24.14;60.54;100763.69;4993967;28;4262;-67
2022/08/01 04:12:32;;;;;;;;;;;;;;;24.10;60.60;100764.31;4994554;28;4243;-67
2022/08/01 04:14:58;;;;;;;;;;;;;;;24.15;60.25;100763.00;4993153;28;4269;-67
2022/08/01 04:17:25;;;;;;;;;;;;;;;24.16;60.40;100755.06;4993247;28;4140;-67
2022/08/01 04:19:51;;;;;;;;;;;;;;;24.17;60.89;100765.97;4993646;28;4188;-66
2022/08/01 04:22:18;;;;;;;;;;;;;;;24.15;60.32;100765.91;4996950;28;4233;-66
2022/08/01 04:24:48;;;;;;;;;;;;;;;24.14;59.99;100776.00;4994752;28;5338;-67
2022/08/01 04:27:22;;;;;;;;;;;;;;;24.14;60.63;100776.00;4990643;28;4238;-68
2022/08/01 04:30:09;;;;;;;;;;;;;;;24.14;60.93;100773.09;4995770;28;4269;-67
2022/08/01 04:32:44;;;;;;;;;;;;;;;24.13;61.12;100774.53;4996360;28;4289;-68
2022/08/01 04:35:11;;;;;;;;;;;;;;;24.13;60.66;100780.31;4985397;28;6218;-68
2022/08/01 04:37:57;;;;;;;;;;;;;;;24.13;61.16;100780.31;4990666;28;4223;-68
2022/08/01 04:40:24;;;;;;;;;;;;;;;24.14;60.49;100775.25;4994031;28;4141;-63
2022/08/01 04:42:50;;;;;;;;;;;;;;;23.95;61.17;100785.56;4992091;28;4147;-67
2022/08/01 04:45:17;;;;;;;;;;;;;;;23.70;62.64;100784.75;4992388;28;4277;-68
2022/08/01 04:47:43;;;;;;;;;;;;;;;23.33;64.53;100794.41;4991532;28;4253;-60
2022/08/01 04:50:10;;;;;;;;;;;;;;;22.96;66.65;100785.22;4979975;28;5450;-68
2022/08/01 04:52:36;;;;;;;;;;;;;;;23.28;65.97;100787.75;4991122;28;4207;-69
2022/08/01 04:55:03;;;;;;;;;;;;;;;23.63;64.30;100794.66;4992496;28;4249;-67
2022/08/01 04:57:30;;;;;;;;;;;;;;;23.71;64.40;100783.38;4993928;28;4333;-68
2022/08/01 04:59:56;;;;;;;;;;;;;;;23.30;65.92;100787.84;4995393;28;4183;-68
2022/08/01 05:02:23;;;;;;;;;;;;;;;23.64;64.81;100784.59;4991928;28;5448;-67
2022/08/01 05:04:49;;;;;;;;;;;;;;;23.67;64.80;100783.22;4992946;28;4296;-67
2022/08/01 05:07:16;;;;;;;;;;;;;;;22.95;67.81;100780.88;4996480;28;4553;-67
2022/08/01 05:09:42;;;;;;;;;;;;;;;23.29;66.42;100789.22;4998049;28;4174;-68
2022/08/01 05:12:08;;;;;;;;;;;;;;;23.20;67.06;100787.47;4995249;28;5264;-68
2022/08/01 05:14:35;;;;;;;;;;;;;;;23.38;65.95;100798.91;4996987;28;5348;-67
2022/08/01 05:17:03;;;;;;;;;;;;;;;23.45;65.74;100788.28;4993771;28;5249;-68
2022/08/01 05:19:32;;;;;;;;;;;;;;;23.69;64.74;100797.03;4996025;28;5223;-66
2022/08/01 05:22:04;;;;;;;;;;;;;;;22.95;67.79;100789.53;4993794;28;5352;-71
2022/08/01 05:24:31;;;;;;;;;;;;;;;23.55;68.08;100797.31;4975385;28;4537;-66
2022/08/01 05:26:58;;;;;;;;;;;;;;;23.86;66.25;100790.34;4984412;28;5319;-69
2022/08/01 05:29:25;;;;;;;;;;;;;;;23.97;65.14;100797.19;4985953;28;4249;-69
2022/08/01 05:31:53;;;;;;;;;;;;;;;24.11;64.85;100791.09;4989270;28;4320;-67
2022/08/01 05:34:19;;;;;;;;;;;;;;;24.15;63.70;100791.94;4989002;28;4260;-68
2022/08/01 05:36:46;;;;;;;;;;;;;;;24.25;63.45;100803.81;4992312;28;4282;-68
2022/08/01 05:39:12;;;;;;;;;;;;;;;24.28;63.83;100801.72;4993945;28;4232;-67
2022/08/01 05:41:39;;;;;;;;;;;;;;;24.29;63.15;100793.78;4993434;28;4255;-66
2022/08/01 05:44:05;;;;;;;;;;;;;;;24.38;63.64;100804.19;4996855;28;5497;-68
2022/08/01 05:46:32;;;;;;;;;;;;;;;24.37;63.66;100802.69;4993141;28;3998;-67
2022/08/01 05:48:58;;;;;;;;;;;;;;;24.35;63.81;100808.41;4994613;28;4382;-64
2022/08/01 05:51:24;;;;;;;;;;;;;;;24.30;63.58;100803.94;4993510;28;5301;-65
2022/08/01 05:53:51;;;;;;;;;;;;;;;24.37;63.56;100811.38;4996000;28;4642;-65
2022/08/01 05:56:17;;;;;;;;;;;;;;;24.44;63.44;100810.13;4994085;28;5586;-66
2022/08/01 05:58:44;;;;;;;;;;;;;;;24.45;62.83;100808.72;4997450;28;4170;-66
2022/08/01 06:01:10;;;;;;;;;;;;;;;24.51;63.04;100811.81;4995521;28;4121;-65
2022/08/01 06:03:36;;;;;;;;;;;;;;;24.43;63.42;100811.56;4994967;28;6320;-65
2022/08/01 06:06:03;;;;;;;;;;;;;;;24.36;63.72;100815.69;4992376;28;4643;-64
2022/08/01 06:08:29;;;;;;;;;;;;;;;24.43;63.71;100823.13;4991829;28;4192;-64
2022/08/01 06:10:56;;;;;;;;;;;;;;;24.32;65.28;100818.47;4989525;28;5600;-68
2022/08/01 06:13:22;;;;;;;;;;;;;;;24.43;64.49;100811.56;4987844;28;4246;-65
2022/08/01 06:15:48;;;;;;;;;;;;;;;24.39;64.99;100820.13;4989195;28;4381;-68
2022/08/01 06:18:15;;;;;;;;;;;;;;;24.49;64.54;100813.91;4989993;28;4287;-67
2022/08/01 06:20:41;;;;;;;;;;;;;;;24.53;64.74;100817.66;4994169;28;4183;-67
2022/08/01 06:23:08;;;;;;;;;;;;;;;24.59;64.18;100822.88;4994675;28;5340;-74
2022/08/01 06:25:54;;;;;;;;;;;;;;;24.54;64.39;100821.31;4991050;28;4493;-68
2022/08/01 06:28:21;;;;;;;;;;;;;;;24.51;64.81;100826.31;4994610;28;4265;-77
2022/08/01 06:30:47;;;;;;;;;;;;;;;24.47;65.37;100817.50;4997300;28;4403;-70
2022/08/01 06:33:14;;;;;;;;;;;;;;;24.46;65.50;100816.72;4994841;28;4228;-70
2022/08/01 06:35:40;;;;;;;;;;;;;;;24.51;65.51;100825.53;4994645;28;4097;-70
2022/08/01 06:38:07;;;;;;;;;;;;;;;24.57;65.62;100826.44;4989405;28;4416;-71
2022/08/01 06:40:33;;;;;;;;;;;;;;;24.46;65.66;100818.88;4994734;28;5337;-70
2022/08/01 06:43:01;;;;;;;;;;;;;;;24.60;64.92;100833.81;4987994;28;5324;-68
2022/08/01 06:45:28;;;;;;;;;;;;;;;24.58;65.33;100827.94;4988701;28;4204;-70
2022/08/01 06:47:54;;;;;;;;;;;;;;;24.54;65.71;100833.63;4989149;28;4277;-68
2022/08/01 06:50:20;;;;;;;;;;;;;;;24.62;65.48;100845.44;4984834;28;4725;-69
2022/08/01 06:52:47;;;;;;;;;;;;;;;24.64;65.08;100836.78;4986035;28;6874;-64
2022/08/01 06:55:14;;;;;;;;;;;;;;;24.50;65.53;100839.28;4977386;28;4554;-67
2022/08/01 06:57:47;;;;;;;;;;;;;;;24.56;65.40;100838.72;4995396;28;4118;-68
2022/08/01 07:00:13;;;;;;;;;;;;;;;24.47;65.63;100831.97;4992692;28;4218;-67
2022/08/01 07:02:40;;;;;;;;;;;;;;;24.54;65.27;100830.72;4992979;28;4242;-68
2022/08/01 07:05:07;;;;;;;;;;;;;;;24.55;65.25;100826.41;4991862;28;5524;-69
2022/08/01 07:07:33;;;;;;;;;;;;;;;24.64;65.17;100831.00;4991613;28;4391;-67
2022/08/01 07:10:00;;;;;;;;;;;;;;;24.71;65.38;100829.00;4990090;28;6435;-65
2022/08/01 07:12:26;;;;;;;;;;;;;;;24.71;64.59;100834.06;4993501;28;4234;-64
2022/08/01 07:14:52;;;;;;;;;;;;;;;24.72;64.85;100830.50;4986501;28;4264;-67
2022/08/01 07:17:20;;;;;;;;;;;;;;;24.74;64.80;100832.69;4983819;28;5294;-67
2022/08/01 07:19:47;;;;;;;;;;;;;;;24.64;65.22;100836.06;4989475;28;4162;-65
2022/08/01 07:22:14;;;;;;;;;;;;;;;24.62;64.74;100839.66;4990342;28;5323;-66
2022/08/01 07:24:48;;;;;;;;;;;;;;;24.67;64.38;100838.34;4984777;28;4220;-64
2022/08/01 07:27:19;;;;;;;;;;;;;;;24.67;64.39;100832.53;4985144;28;4215;-65
2022/08/01 07:29:51;;;;;;;;;;;;;;;24.56;64.07;100836.56;4985226;28;4258;-65
2022/08/01 07:32:18;;;;;;;;;;;;;;;24.57;64.09;100838.03;4988093;28;5273;-68
2022/08/01 07:34:45;;;;;;;;;;;;;;;24.55;64.04;100843.03;4992806;28;4426;-69
2022/08/01 07:37:11;;;;;;;;;;;;;;;24.63;63.87;100851.97;4999014;28;4305;-69
2022/08/01 07:39:37;;;;;;;;;;;;;;;24.71;62.95;100851.44;4995140;28;4084;-72
2022/08/01 07:42:04;;;;;;;;;;;;;;;24.61;63.13;100855.53;4999345;28;4364;-72
2022/08/01 07:44:33;;;;;;;;;;;;;;;24.55;63.25;100861.13;4991930;28;6762;-74
2022/08/01 07:46:59;;;;;;;;;;;;;;;24.53;62.96;100872.66;4997933;28;4258;-68
2022/08/01 07:49:26;;;;;;;;;;;;;;;24.61;62.94;100861.31;4988993;28;4329;-68
2022/08/01 07:51:54;;;;;;;;;;;;;;;24.62;62.43;100874.38;4994092;28;4176;-68
2022/08/01 07:54:30;;;;;;;;;;;;;;;24.64;62.64;100874.44;4997825;28;4360;-71
2022/08/01 07:56:59;;;;;;;;;;;;;;;24.71;62.47;100883.28;4991703;28;4233;-69
2022/08/01 07:59:25;;;;;;;;;;;;;;;24.61;61.89;100878.69;4992617;28;6573;-68
2022/08/01 08:01:51;;;;;;;;;;;;;;;24.62;62.07;100880.19;4999304;28;4375;-70
2022/08/01 08:04:18;;;;;;;;;;;;;;;24.64;61.60;100874.44;4984362;28;5529;-69
2022/08/01 08:06:47;;;;;;;;;;;;;;;24.56;61.03;100870.56;4997553;28;4408;-68
2022/08/01 08:09:13;;;;;;;;;;;;;;;24.62;61.13;100871.50;4999213;28;5262;-74
2022/08/01 08:11:41;;;;;;;;;;;;;;;24.54;60.67;100864.72;5003403;28;4255;-72
2022/08/01 08:14:12;;;;;;;;;;;;;;;24.59;60.29;100867.03;5000935;28;5409;-73
2022/08/01 08:16:39;;;;;;;;;;;;;;;24.59;60.17;100875.72;4997273;28;4376;-70
2022/08/01 08:19:05;;;;;;;;;;;;;;;24.45;60.45;100873.13;4992368;28;4257;-68
2022/08/01 08:21:32;;;;;;;;;;;;;;;24.60;60.37;100871.44;4998579;28;5328;-70
2022/08/01 08:26:43;;;;;;;;;;;;;;;24.54;59.86;100879.94;4990948;28;4887;-69
2022/08/01 08:29:10;;;;;;;;;;;;;;;24.54;60.01;100874.13;4990290;28;5260;-66
2022/08/01 08:31:36;;;;;;;;;;;;;;;24.60;60.20;100877.22;4991273;28;4357;-66
2022/08/01 08:34:18;;;;;;;;;;;;;;;24.38;60.42;100876.53;4984145;28;4287;-68
2022/08/01 08:36:44;;;;;;;;;;;;;;;24.22;60.94;100874.63;4991129;28;4182;-67
2022/08/01 08:39:13;;;;;;;;;;;;;;;24.05;60.99;100878.41;4991287;28;4172;-65
2022/08/01 08:41:39;;;;;;;;;;;;;;;23.87;61.36;100872.03;4992694;28;4603;-63
2022/08/01 08:44:06;;;;;;;;;;;;;;;23.78;61.74;100879.75;4988125;28;4324;-63
2022/08/01 08:46:40;;;;;;;;;;;;;;;23.72;61.96;100888.91;4988904;28;4085;-64
2022/08/01 08:49:06;;;;;;;;;;;;;;;24.03;61.28;100892.84;4991540;28;5556;-63
2022/08/01 08:51:33;;;;;;;;;;;;;;;23.68;61.97;100888.78;4987243;28;4246;-66
2022/08/01 08:54:00;;;;;;;;;;;;;;;23.70;62.03;100891.72;4994696;28;4219;-63
2022/08/01 08:56:29;;;;;;;;;;;;;;;23.94;61.29;100896.88;4988100;28;5510;-65
2022/08/01 08:58:56;;;;;;;;;;;;;;;23.35;62.45;100890.56;4993871;28;5264;-67
2022/08/01 09:01:22;;;;;;;;;;;;;;;23.91;61.08;100904.00;4988213;28;5344;-63
2022/08/01 09:03:49;;;;;;;;;;;;;;;24.06;60.68;100900.16;4992612;28;4288;-63
2022/08/01 09:06:15;;;;;;;;;;;;;;;24.15;60.49;100910.56;4984931;28;4265;-67
2022/08/01 09:08:42;;;;;;;;;;;;;;;24.20;60.16;100912.16;4994332;28;5264;-68
2022/08/01 09:11:08;;;;;;;;;;;;;;;24.25;60.06;100919.53;4993687;28;5373;-68
2022/08/01 09:13:34;;;;;;;;;;;;;;;24.28;60.43;100910.94;4988712;28;4102;-68
2022/08/01 09:16:01;;;;;;;;;;;;;;;24.32;60.29;100911.06;4988697;28;4608;-68
2022/08/01 09:18:28;;;;;;;;;;;;;;;24.33;60.30;100910.41;4990591;28;5261;-68
2022/08/01 09:21:06;;;;;;;;;;;;;;;24.35;60.58;100918.38;4990216;28;6487;-68
2022/08/01 09:23:33;;;;;;;;;;;;;;;24.36;60.72;100922.78;4993288;28;4288;-68
2022/08/01 09:25:59;;;;;;;;;;;;;;;24.37;60.45;100919.22;4996037;28;4464;-68
2022/08/01 09:28:29;;;;;;;;;;;;;;;24.38;61.28;100917.03;4985574;28;5326;-68
2022/08/01 09:30:55;;;;;;;;;;;;;;;24.37;61.08;100924.25;4989682;28;4245;-68
2022/08/01 09:33:22;;;;;;;;;;;;;;;24.37;61.26;100927.13;4995516;28;4226;-69
2022/08/01 09:35:55;;;;;;;;;;;;;;;24.36;61.02;100931.47;4994296;28;6335;-68
2022/08/01 09:38:26;;;;;;;;;;;;;;;24.49;60.54;100933.34;4984156;28;5283;-76
2022/08/01 09:40:53;;;;;;;;;;;;;;;24.57;60.50;100927.78;4988881;28;4243;-77
2022/08/01 09:43:21;;;;;;;;;;;;;;;24.64;60.31;100931.59;4991276;28;4185;-72
2022/08/01 09:45:48;;;;;;;;;;;;;;;24.67;60.19;100933.88;4991908;28;4255;-70
2022/08/01 09:48:18;;;;;;;;;;;;;;;24.74;59.85;100942.75;4982674;28;4187;-69
2022/08/01 09:50:48;;;;;;;;;;;;;;;24.74;60.00;100937.72;4991265;28;4535;-73
2022/08/01 09:53:15;;;;;;;;;;;;;;;24.75;59.49;100944.22;4995499;28;4276;-75
2022/08/01 09:55:56;;;;;;;;;;;;;;;24.77;59.56;100955.88;4991763;28;4187;-72
2022/08/01 09:58:22;;;;;;;;;;;;;;;24.79;59.49;100956.66;4990480;28;4196;-70
2022/08/01 10:00:59;;;;;;;;;;;;;;;24.84;59.01;100951.75;4985149;28;4310;-72
2022/08/01 10:03:26;;;;;;;;;;;;;;;24.87;59.04;100951.09;4994856;28;4222;-71
2022/08/01 10:05:56;;;;;;;;;;;;;;;24.88;58.95;100948.97;4985809;28;5952;-73
2022/08/01 10:08:25;;;;;;;;;;;;;;;24.91;59.07;100953.38;4989497;28;4341;-72
2022/08/01 10:11:11;;;;;;;;;;;;;;;24.98;58.87;100949.25;4989365;28;5509;-75
2022/08/01 10:13:41;;;;;;;;;;;;;;;25.03;58.45;100961.69;4992585;28;5891;-70
2022/08/01 10:16:08;;;;;;;;;;;;;;;25.03;58.63;100961.69;4989664;28;5450;-73
2022/08/01 10:18:35;;;;;;;;;;;;;;;24.95;58.73;100962.19;4996574;28;4382;-71
2022/08/01 10:21:03;;;;;;;;;;;;;;;24.98;58.43;100971.69;4987424;28;5415;-73
2022/08/01 10:23:36;;;;;;;;;;;;;;;25.02;58.58;100972.53;4986470;28;4186;-71
2022/08/01 10:26:06;;;;;;;;;;;;;;;24.98;58.50;100966.63;4991553;28;4226;-71
2022/08/01 10:28:34;;;;;;;;;;;;;;;25.03;58.68;100961.69;4989213;28;4191;-75
2022/08/01 10:31:04;;;;;;;;;;;;;;;25.04;58.35;100969.72;4989840;28;4255;-63
2022/08/01 10:33:39;;;;;;;;;;;;;;;25.00;58.74;100966.69;4993846;28;4329;-67
2022/08/01 10:36:22;;;;;;;;;;;;;;;24.91;59.07;100967.88;4984647;28;4219;-67
2022/08/01 10:38:50;;;;;;;;;;;;;;;24.76;58.66;100974.66;4993733;28;4035;-67
2022/08/01 10:41:17;;;;;;;;;;;;;;;24.90;58.39;100969.31;4990135;28;4224;-64
2022/08/01 10:43:44;;;;;;;;;;;;;;;24.82;58.60;100966.16;4991633;28;4241;-67
2022/08/01 10:46:12;;;;;;;;;;;;;;;24.94;58.59;100969.41;4994848;28;5515;-68
2022/08/01 10:48:59;;;;;;;;;;;;;;;24.95;58.81;100962.19;4992269;28;4281;-66
2022/08/01 10:51:26;;;;;;;;;;;;;;;24.85;58.47;100964.78;4982661;28;4372;-66
2022/08/01 10:54:12;;;;;;;;;;;;;;;24.92;58.61;100969.34;4995402;28;4206;-70
2022/08/01 10:56:46;;;;;;;;;;;;;;;25.00;58.59;100969.59;5001174;28;4149;-75
2022/08/01 10:59:14;;;;;;;;;;;;;;;25.06;58.16;100971.94;5007919;28;4242;-73
2022/08/01 11:01:40;;;;;;;;;;;;;;;25.12;58.06;100977.16;4997517;28;4202;-67
2022/08/01 11:04:11;;;;;;;;;;;;;;;25.24;57.82;100974.63;5003365;28;4224;-71
2022/08/01 11:06:42;;;;;;;;;;;;;;;25.29;57.44;100976.22;5004500;28;5523;-70
2022/08/01 11:09:12;;;;;;;;;;;;;;;25.21;57.50;100976.00;4996796;28;4208;-73
2022/08/01 11:12:02;;;;;;;;;;;;;;;25.27;57.53;100973.28;5000168;28;5386;-68
2022/08/01 11:14:32;;;;;;;;;;;;;;;25.08;57.84;100990.13;4993760;28;4262;-70
2022/08/01 11:17:31;;;;;;;;;;;;;;;25.12;57.91;100985.84;4988028;28;4200;-68
2022/08/01 11:20:06;;;;;;;;;;;;;;;25.13;57.68;100990.22;4999129;28;4172;-69
2022/08/01 11:22:52;;;;;;;;;;;;;;;25.14;57.78;100985.91;4994258;28;4347;-71
2022/08/01 11:25:19;;;;;;;;;;;;;;;25.13;57.74;100993.09;5000897;28;4232;-68
2022/08/01 11:28:16;;;;;;;;;;;;;;;25.19;57.66;100993.31;5000795;28;4784;-71
2022/08/01 11:30:54;;;;;;;;;;;;;;;25.15;57.47;101004.75;5006968;28;4341;-71
2022/08/01 11:33:39;;;;;;;;;;;;;;;25.30;57.46;100995.09;5001801;28;4310;-69
2022/08/01 11:36:11;;;;;;;;;;;;;;;25.57;57.04;101001.63;5001459;28;4314;-70
2022/08/01 11:39:02;;;;;;;;;;;;;;;26.27;54.86;100999.09;4995823;28;4116;-70
2022/08/01 11:41:38;;;;;;;;;;;;;;;26.36;54.78;101005.06;4993443;28;6344;-74
2022/08/01 11:44:12;;;;;;;;;;;;;;;26.21;55.27;100995.31;5006776;28;5102;-72
2022/08/01 11:46:50;;;;;;;;;;;;;;;26.22;54.98;101000.41;4998225;28;5665;-74
2022/08/01 11:49:35;;;;;;;;;;;;;;;26.31;54.92;101007.16;4995654;28;4264;-68
2022/08/01 11:52:05;;;;;;;;;;;;;;;25.96;55.10;100988.88;4992243;28;4182;-75
2022/08/01 11:54:32;;;;;;;;;;;;;;;25.89;55.35;100998.88;4992358;28;4231;-77
2022/08/01 11:57:04;;;;;;;;;;;;;;;26.05;55.18;101001.44;4990334;28;4161;-70
2022/08/01 11:59:35;;;;;;;;;;;;;;;25.95;55.47;101006.97;4988588;28;4184;-70
2022/08/01 12:02:24;;;;;;;;;;;;;;;25.92;55.46;100998.22;4992670;28;4289;-72
2022/08/01 12:04:56;;;;;;;;;;;;;;;26.14;54.94;101011.81;4990419;28;4222;-72
2022/08/01 12:07:22;;;;;;;;;;;;;;;26.55;55.03;100998.31;4997900;28;5605;-69
2022/08/01 12:09:56;;;;;;;;;;;;;;;26.25;54.59;101004.84;5000831;28;4242;-71
2022/08/01 12:12:22;;;;;;;;;;;;;;;26.06;55.09;101000.00;5005415;28;5309;-72
2022/08/01 12:14:53;;;;;;;;;;;;;;;26.07;55.39;101001.50;4996979;28;4246;-72
2022/08/01 12:17:20;;;;;;;;;;;;;;;26.32;55.52;100991.22;4996909;28;6443;-71
2022/08/01 12:19:49;;;;;;;;;;;;;;;26.23;54.85;101004.06;4993401;28;5599;-75
2022/08/01 12:22:15;;;;;;;;;;;;;;;26.15;54.77;100998.03;4993837;28;4245;-72
2022/08/01 12:24:42;;;;;;;;;;;;;;;26.00;54.90;100996.94;4995795;28;4509;-73
2022/08/01 12:27:09;;;;;;;;;;;;;;;26.25;54.80;100996.13;5000035;28;5399;-69
2022/08/01 12:29:36;;;;;;;;;;;;;;;26.11;54.51;101004.47;4999429;28;5652;-65
2022/08/01 12:32:03;;;;;;;;;;;;;;;25.75;56.14;101007.91;4997644;28;4549;-66
2022/08/01 12:34:30;;;;;;;;;;;;;;;25.65;56.38;101001.81;4989175;28;6269;-64
2022/08/01 12:36:56;;;;;;;;;;;;;;;25.62;56.42;100994.50;4996273;28;5185;-65
2022/08/01 12:39:28;;;;;;;;;;;;;;;25.54;56.61;100994.28;4997244;28;5356;-68
2022/08/01 12:41:55;;;;;;;;;;;;;;;25.46;56.20;100994.78;4998208;28;4203;-70
2022/08/01 12:44:21;;;;;;;;;;;;;;;25.43;56.32;100996.91;4997462;28;5471;-68
2022/08/01 12:46:47;;;;;;;;;;;;;;;25.34;56.44;100992.31;4998750;28;5239;-67
2022/08/01 12:49:14;;;;;;;;;;;;;;;25.38;56.50;100989.53;4995647;28;4284;-69
2022/08/01 12:51:40;;;;;;;;;;;;;;;25.48;56.42;100995.59;4997471;28;5607;-72
2022/08/01 12:54:09;;;;;;;;;;;;;;;25.46;56.30;101001.31;4994320;28;4909;-71
2022/08/01 12:56:36;;;;;;;;;;;;;;;25.43;55.93;101007.78;4994376;28;5670;-69
2022/08/01 12:59:19;;;;;;;;;;;;;;;25.35;55.97;100999.56;4996850;28;4182;-66
2022/08/01 13:01:46;;;;;;;;;;;;;;;25.32;55.89;101009.63;4998374;28;4131;-65